createdAt,value
2019-03-12T00:00:19.421Z,4.99
2019-03-12T00:01:19.453Z,5.13
2019-03-12T00:02:19.400Z,5.05
2019-03-12T00:03:19.389Z,5.09
2019-03-12T00:04:19.378Z,5.07
2019-03-12T00:05:19.680Z,5.04
2019-03-12T00:06:19.362Z,5.09
2019-03-12T00:07:19.383Z,5.09
2019-03-12T00:08:19.337Z,4.99
2019-03-12T00:09:19.326Z,5.13
2019-03-12T00:10:19.318Z,5.01
2019-03-12T00:11:19.307Z,4.89
2019-03-12T00:12:19.580Z,4.99
2019-03-12T00:13:19.335Z,5.05
2019-03-12T00:14:19.280Z,4.94
2019-03-12T00:15:19.266Z,4.99
2019-03-12T00:16:19.256Z,5.05
2019-03-12T00:17:19.243Z,5.04
2019-03-12T00:18:19.237Z,4.98
2019-03-12T00:19:21.506Z,4.99
2019-03-12T00:20:19.213Z,4.98
2019-03-12T00:21:19.204Z,4.89
2019-03-12T00:22:19.193Z,5.04
2019-03-12T00:23:19.182Z,4.94
2019-03-12T00:24:19.174Z,4.96
2019-03-12T00:25:19.301Z,4.98
2019-03-12T00:26:19.155Z,5.02
2019-03-12T00:27:19.143Z,4.94
2019-03-12T00:28:19.134Z,4.88
2019-03-12T00:29:19.120Z,4.96
2019-03-12T00:30:19.109Z,4.91
2019-03-12T00:31:19.227Z,4.89
2019-03-12T00:32:19.418Z,4.72
2019-03-12T00:33:19.200Z,4.86
2019-03-12T00:34:19.910Z,4.83
2019-03-12T00:35:19.079Z,4.92
2019-03-12T00:36:19.049Z,4.89
2019-03-12T00:37:20.005Z,4.84
2019-03-12T00:44:26.758Z,4.96
2019-03-12T00:45:05.880Z,4.89
2019-03-12T00:46:12.514Z,4.72
2019-03-12T00:47:05.781Z,4.76
2019-03-12T00:48:05.691Z,4.91
2019-03-12T01:05:34.850Z,4.67
2019-03-12T01:06:34.405Z,4.76
2019-03-12T01:07:36.967Z,4.75
2019-03-12T01:13:38.193Z,4.83
2019-03-12T01:14:40.660Z,4.92
2019-03-12T01:15:44.694Z,4.94
2019-03-12T01:16:37.806Z,4.91
2019-03-12T01:24:33.022Z,4.86
2019-03-12T01:26:08.275Z,4.95
2019-03-12T01:30:07.179Z,4.98
2019-03-12T01:31:06.902Z,5.02
2019-03-12T01:32:13.614Z,4.96
2019-03-12T01:33:06.795Z,4.95
2019-03-12T01:39:00.346Z,4.89
2019-03-12T01:40:00.271Z,4.84
2019-03-12T01:54:50.696Z,4.96
2019-03-12T01:55:50.227Z,4.91
2019-03-12T01:56:50.128Z,4.91
2019-03-12T01:57:49.988Z,4.99
2019-03-12T02:16:03.033Z,4.67
2019-03-12T02:27:18.765Z,4.70
2019-03-12T02:31:57.661Z,4.75
2019-03-12T02:33:27.100Z,4.73
2019-03-12T02:33:55.469Z,4.73
2019-03-12T02:35:09.991Z,4.75
2019-03-12T02:43:30.306Z,4.46
2019-03-12T02:44:30.227Z,4.52
2019-03-12T02:45:30.202Z,4.44
2019-03-12T02:46:30.211Z,4.52
2019-03-12T02:47:30.221Z,4.44
2019-03-12T02:48:31.376Z,4.32
2019-03-12T02:57:53.658Z,4.12
2019-03-12T03:02:35.306Z,4.07
2019-03-12T03:03:34.614Z,4.07
2019-03-12T03:04:34.620Z,4.03
2019-03-12T03:05:34.587Z,4.00
2019-03-12T03:06:34.572Z,3.97
2019-03-12T03:07:34.577Z,3.89
2019-03-12T03:08:34.758Z,3.98
2019-03-12T03:09:34.944Z,3.98
2019-03-12T03:10:34.518Z,3.98
2019-03-12T03:11:34.647Z,3.92
2019-03-12T03:12:34.498Z,3.92
2019-03-12T03:13:34.499Z,3.86
2019-03-12T03:14:34.528Z,3.85
2019-03-12T03:15:34.475Z,3.83
2019-03-12T03:16:34.783Z,3.83
2019-03-12T03:17:34.447Z,3.85
2019-03-12T03:18:34.442Z,3.76
2019-03-12T03:19:34.452Z,3.82
2019-03-12T03:20:34.492Z,3.83
2019-03-12T03:21:34.408Z,3.86
2019-03-12T03:22:34.404Z,3.80
2019-03-12T03:23:34.744Z,3.75
2019-03-12T03:24:34.381Z,3.75
2019-03-12T03:25:34.364Z,3.78
2019-03-12T03:26:34.422Z,3.78
2019-03-12T03:27:34.350Z,3.71
2019-03-12T03:28:34.357Z,3.62
2019-03-12T03:29:34.358Z,3.72
2019-03-12T03:30:34.700Z,3.71
2019-03-12T03:31:34.399Z,3.65
2019-03-12T03:32:34.343Z,3.64
2019-03-12T03:33:34.317Z,3.62
2019-03-12T03:34:34.265Z,3.76
2019-03-12T03:35:34.269Z,3.76
2019-03-12T03:36:34.269Z,3.64
2019-03-12T03:37:34.599Z,3.70
2019-03-12T03:38:34.322Z,3.70
2019-03-12T03:39:34.221Z,3.62
2019-03-12T03:40:34.249Z,3.67
2019-03-12T03:41:35.021Z,3.61
2019-03-12T03:42:34.210Z,3.60
2019-03-12T03:43:34.177Z,3.62
2019-03-12T03:44:34.567Z,3.60
2019-03-12T03:45:34.172Z,3.65
2019-03-12T03:46:34.149Z,3.61
2019-03-12T03:47:34.170Z,3.65
2019-03-12T03:48:34.804Z,3.62
2019-03-12T03:49:34.137Z,3.61
2019-03-12T03:50:34.147Z,3.61
2019-03-12T03:51:34.792Z,3.44
2019-03-12T03:52:34.167Z,3.58
2019-03-12T03:53:34.089Z,3.61
2019-03-12T03:54:34.082Z,3.62
2019-03-12T03:55:34.044Z,3.61
2019-03-12T03:56:34.125Z,3.64
2019-03-12T03:57:34.029Z,3.60
2019-03-12T03:58:35.201Z,3.60
2019-03-12T03:59:34.006Z,3.71
2019-03-12T04:00:34.018Z,3.62
2019-03-12T04:01:34.007Z,3.61
2019-03-12T04:02:34.038Z,3.62
2019-03-12T04:03:33.974Z,3.64
2019-03-12T04:04:33.948Z,3.60
2019-03-12T04:05:34.311Z,3.61
2019-03-12T04:06:34.520Z,3.64
2019-03-12T04:07:33.947Z,3.57
2019-03-12T04:08:34.008Z,3.54
2019-03-12T04:09:33.923Z,3.50
2019-03-12T04:10:33.884Z,3.58
2019-03-12T04:11:33.860Z,3.57
2019-03-12T04:12:34.228Z,3.62
2019-03-12T04:13:33.863Z,3.61
2019-03-12T04:14:34.179Z,3.61
2019-03-12T04:15:33.850Z,3.54
2019-03-12T04:16:33.837Z,3.57
2019-03-12T04:17:33.795Z,3.46
2019-03-12T04:18:33.810Z,3.52
2019-03-12T04:19:34.147Z,3.50
2019-03-12T04:20:33.836Z,3.53
2019-03-12T04:21:33.780Z,3.53
2019-03-12T04:22:33.749Z,3.42
2019-03-12T04:23:33.734Z,3.53
2019-03-12T04:24:33.747Z,3.42
2019-03-12T04:25:33.818Z,3.43
2019-03-12T04:26:34.056Z,3.44
2019-03-12T04:27:33.738Z,3.49
2019-03-12T04:28:34.059Z,3.36
2019-03-12T04:29:33.691Z,3.31
2019-03-12T04:30:33.702Z,3.31
2019-03-12T04:31:33.672Z,3.34
2019-03-12T04:32:34.006Z,3.39
2019-03-12T04:33:33.977Z,3.39
2019-03-12T04:34:33.616Z,3.24
2019-03-12T04:35:33.603Z,3.25
2019-03-12T04:36:33.639Z,3.27
2019-03-12T04:37:33.613Z,3.30
2019-03-12T04:38:33.658Z,3.27
2019-03-12T04:39:33.625Z,3.27
2019-03-12T04:40:34.000Z,3.18
2019-03-12T04:41:33.560Z,3.24
2019-03-12T04:42:33.562Z,3.21
2019-03-12T04:43:33.587Z,3.30
2019-03-12T04:44:33.571Z,3.25
2019-03-12T04:45:33.615Z,3.23
2019-03-12T04:46:33.513Z,3.23
2019-03-12T04:47:33.839Z,3.30
2019-03-12T04:48:33.489Z,3.21
2019-03-12T04:49:33.479Z,3.24
2019-03-12T04:50:33.538Z,3.28
2019-03-12T04:51:33.491Z,3.34
2019-03-12T04:52:33.434Z,3.20
2019-03-12T04:53:33.433Z,3.28
2019-03-12T04:54:34.045Z,3.23
2019-03-12T04:55:33.669Z,3.36
2019-03-12T04:56:33.469Z,3.23
2019-03-12T04:57:33.413Z,3.28
2019-03-12T04:58:33.367Z,3.36
2019-03-12T04:59:33.393Z,3.33
2019-03-12T05:00:33.599Z,3.30
2019-03-12T05:01:33.898Z,3.21
2019-03-12T05:02:34.436Z,3.30
2019-03-12T05:03:33.371Z,3.21
2019-03-12T05:04:33.317Z,3.33
2019-03-12T05:05:33.596Z,3.27
2019-03-12T05:06:33.473Z,3.28
2019-03-12T05:07:33.447Z,3.28
2019-03-12T05:08:34.516Z,3.30
2019-03-12T05:09:33.496Z,3.31
2019-03-12T05:10:33.470Z,3.27
2019-03-12T05:11:33.248Z,3.31
2019-03-12T05:12:33.224Z,3.30
2019-03-12T05:13:33.228Z,3.31
2019-03-12T05:14:33.245Z,3.42
2019-03-12T05:15:33.524Z,3.50
2019-03-12T05:16:33.199Z,3.47
2019-03-12T05:17:33.178Z,3.49
2019-03-12T05:18:33.168Z,3.53
2019-03-12T05:19:33.153Z,3.61
2019-03-12T05:20:33.188Z,3.57
2019-03-12T05:21:33.133Z,3.58
2019-03-12T05:22:33.128Z,3.54
2019-03-12T05:23:33.131Z,3.58
2019-03-12T05:24:33.196Z,3.58
2019-03-12T05:25:33.078Z,3.57
2019-03-12T05:26:33.204Z,3.49
2019-03-12T05:27:33.085Z,3.52
2019-03-12T05:28:33.417Z,3.60
2019-03-12T05:29:33.068Z,3.61
2019-03-12T05:30:33.037Z,3.60
2019-03-12T05:31:33.020Z,3.64
2019-03-12T05:32:33.076Z,3.60
2019-03-12T05:33:33.803Z,3.61
2019-03-12T05:34:33.041Z,3.71
2019-03-12T05:35:33.310Z,3.62
2019-03-12T05:36:33.064Z,3.71
2019-03-12T05:37:33.837Z,3.62
2019-03-12T05:38:33.125Z,3.64
2019-03-12T05:39:33.120Z,3.71
2019-03-12T05:40:32.955Z,3.80
2019-03-12T05:41:32.924Z,3.85
2019-03-12T05:42:33.423Z,3.83
2019-03-12T05:43:32.891Z,3.82
2019-03-12T05:44:33.080Z,3.82
2019-03-12T05:45:33.300Z,3.83
2019-03-12T05:46:32.912Z,3.97
2019-03-12T05:47:32.867Z,3.89
2019-03-12T05:48:32.851Z,3.86
2019-03-12T05:49:33.187Z,3.83
2019-03-12T05:50:33.916Z,3.86
2019-03-12T05:51:32.831Z,3.85
2019-03-12T05:52:32.887Z,3.83
2019-03-12T05:53:33.040Z,3.85
2019-03-12T05:54:32.808Z,3.80
2019-03-12T05:55:33.138Z,3.86
2019-03-12T05:56:32.919Z,3.82
2019-03-12T05:57:32.744Z,3.85
2019-03-12T05:58:32.739Z,3.86
2019-03-12T05:59:32.752Z,3.86
2019-03-12T06:00:32.732Z,3.88
2019-03-12T06:01:32.708Z,3.79
2019-03-12T06:02:33.279Z,3.86
2019-03-12T06:03:32.676Z,3.96
2019-03-12T06:04:32.670Z,3.96
2019-03-12T06:05:35.350Z,3.90
2019-03-12T06:06:32.653Z,3.96
2019-03-12T06:07:32.651Z,4.01
2019-03-12T06:08:32.777Z,3.96
2019-03-12T06:09:34.155Z,3.97
2019-03-12T06:10:32.730Z,4.01
2019-03-12T06:11:32.640Z,3.96
2019-03-12T06:12:32.595Z,4.01
2019-03-12T06:13:32.759Z,3.97
2019-03-12T06:14:32.639Z,4.01
2019-03-12T06:15:32.612Z,4.01
2019-03-12T06:16:32.933Z,4.01
2019-03-12T06:17:58.320Z,4.06
2019-03-12T06:18:53.543Z,4.04
2019-03-12T06:19:32.519Z,4.07
2019-03-12T06:20:32.768Z,4.06
2019-03-12T06:21:32.522Z,4.15
2019-03-12T06:22:32.518Z,4.16
2019-03-12T06:23:32.508Z,4.14
2019-03-12T06:24:32.465Z,4.14
2019-03-12T06:25:32.534Z,4.18
2019-03-12T06:26:32.520Z,4.15
2019-03-12T06:27:33.045Z,4.08
2019-03-12T06:28:32.441Z,4.08
2019-03-12T06:29:32.477Z,4.15
2019-03-12T06:30:32.393Z,4.06
2019-03-12T06:31:32.482Z,4.10
2019-03-12T06:32:32.479Z,4.15
2019-03-12T06:33:32.429Z,4.18
2019-03-12T06:34:32.408Z,4.18
2019-03-12T06:35:32.383Z,4.14
2019-03-12T06:36:32.343Z,4.14
2019-03-12T06:37:32.504Z,4.24
2019-03-12T06:38:32.578Z,4.21
2019-03-12T06:39:32.333Z,4.25
2019-03-12T06:40:32.383Z,4.22
2019-03-12T06:41:33.422Z,4.19
2019-03-12T06:42:33.108Z,4.19
2019-03-12T06:43:32.271Z,4.29
2019-03-12T06:44:32.712Z,4.39
2019-03-12T06:45:32.273Z,4.37
2019-03-12T06:46:32.320Z,4.36
2019-03-12T06:47:32.558Z,4.43
2019-03-12T06:48:32.226Z,4.42
2019-03-12T06:49:32.232Z,4.46
2019-03-12T06:50:32.244Z,4.55
2019-03-12T06:51:32.248Z,4.57
2019-03-12T06:52:32.289Z,4.61
2019-03-12T06:53:32.582Z,4.76
2019-03-12T06:54:32.587Z,4.76
2019-03-12T06:55:32.149Z,4.76
2019-03-12T06:56:32.201Z,4.70
2019-03-12T06:57:34.814Z,4.89
2019-03-12T06:58:32.118Z,4.94
2019-03-12T06:59:32.212Z,5.01
2019-03-12T07:00:33.950Z,5.09
2019-03-12T07:01:32.472Z,5.28
2019-03-12T07:02:40.064Z,5.38
2019-03-12T07:03:32.071Z,5.30
2019-03-12T07:04:32.035Z,5.19
2019-03-12T07:05:32.142Z,5.22
2019-03-12T07:06:32.314Z,5.13
2019-03-12T07:07:32.023Z,5.16
2019-03-12T07:08:33.425Z,5.10
2019-03-12T07:09:32.059Z,5.09
2019-03-12T07:10:46.789Z,5.17
2019-03-12T07:11:31.975Z,5.13
2019-03-12T07:12:31.985Z,5.14
2019-03-12T07:13:31.947Z,5.09
2019-03-12T07:14:32.020Z,5.17
2019-03-12T07:15:32.880Z,5.23
2019-03-12T07:16:32.018Z,5.23
2019-03-12T07:17:31.944Z,5.22
2019-03-12T07:18:31.910Z,5.20
2019-03-12T07:19:42.959Z,5.35
2019-03-12T07:20:32.034Z,5.41
2019-03-12T07:21:32.567Z,5.45
2019-03-12T07:22:31.918Z,5.34
2019-03-12T07:23:31.886Z,5.48
2019-03-12T07:24:31.863Z,5.50
2019-03-12T07:25:31.874Z,5.50
2019-03-12T07:26:31.955Z,5.52
2019-03-12T07:27:31.878Z,5.63
2019-03-12T07:28:32.189Z,5.52
2019-03-12T07:29:31.787Z,5.57
2019-03-12T07:30:31.793Z,5.75
2019-03-12T07:31:31.876Z,5.70
2019-03-12T07:32:33.336Z,5.67
2019-03-12T07:33:33.009Z,5.67
2019-03-12T07:34:36.742Z,5.73
2019-03-12T07:35:33.394Z,5.75
2019-03-12T07:36:31.837Z,5.88
2019-03-12T07:37:31.709Z,5.88
2019-03-12T07:38:31.994Z,6.01
2019-03-12T07:39:32.240Z,5.88
2019-03-12T07:40:32.281Z,5.91
2019-03-12T07:41:32.875Z,5.93
2019-03-12T07:42:33.339Z,6.00
2019-03-12T07:43:31.656Z,6.09
2019-03-12T07:44:31.679Z,6.28
2019-03-12T07:45:31.642Z,6.51
2019-03-12T07:46:31.613Z,6.71
2019-03-12T07:47:36.095Z,6.59
2019-03-12T07:48:31.597Z,6.86
2019-03-12T07:49:52.810Z,7.56
2019-03-12T07:50:31.636Z,7.60
2019-03-12T07:51:31.851Z,7.32
2019-03-12T07:52:31.682Z,7.74
2019-03-12T07:53:31.946Z,7.50
2019-03-12T07:54:33.174Z,7.01
2019-03-12T07:55:31.875Z,6.99
2019-03-12T07:56:31.833Z,6.68
2019-03-12T07:57:31.522Z,6.80
2019-03-12T07:58:35.974Z,6.84
2019-03-12T07:59:31.745Z,6.83
2019-03-12T08:00:31.531Z,7.02
2019-03-12T08:01:32.775Z,7.04
2019-03-12T08:02:31.488Z,7.09
2019-03-12T08:03:31.421Z,6.97
2019-03-12T08:04:31.403Z,7.07
2019-03-12T08:05:32.397Z,7.23
2019-03-12T08:06:31.656Z,7.34
2019-03-12T08:07:31.414Z,7.07
2019-03-12T08:08:31.487Z,6.98
2019-03-12T08:09:32.165Z,6.94
2019-03-12T08:10:33.816Z,6.97
2019-03-12T08:11:31.361Z,6.98
2019-03-12T08:12:34.212Z,7.13
2019-03-12T08:13:31.787Z,7.52
2019-03-12T08:14:31.758Z,7.55
2019-03-12T08:15:38.827Z,7.74
2019-03-12T08:16:31.294Z,7.67
2019-03-12T08:17:31.658Z,7.52
2019-03-12T08:18:31.384Z,7.71
2019-03-12T08:19:31.276Z,7.77
2019-03-12T08:20:31.343Z,7.96
2019-03-12T08:21:32.284Z,7.94
2019-03-12T08:22:34.308Z,7.79
2019-03-12T08:23:31.198Z,7.69
2019-03-12T08:24:31.708Z,7.53
2019-03-12T08:25:31.298Z,7.47
2019-03-12T08:26:31.214Z,7.37
2019-03-12T08:27:31.198Z,7.41
2019-03-12T08:28:31.179Z,7.44
2019-03-12T08:29:31.275Z,7.41
2019-03-12T08:30:31.147Z,7.41
2019-03-12T08:31:32.775Z,7.34
2019-03-12T08:32:31.297Z,7.52
2019-03-12T08:33:31.090Z,7.55
2019-03-12T08:34:31.085Z,7.56
2019-03-12T08:35:31.065Z,7.77
2019-03-12T08:36:31.099Z,7.84
2019-03-12T08:37:31.434Z,7.81
2019-03-12T08:38:31.533Z,7.74
2019-03-12T08:39:31.082Z,7.63
2019-03-12T08:40:31.254Z,7.71
2019-03-12T08:41:32.738Z,7.77
2019-03-12T08:42:32.034Z,7.74
2019-03-12T08:43:31.079Z,7.81
2019-03-12T08:44:31.388Z,7.75
2019-03-12T08:45:34.466Z,7.74
2019-03-12T08:46:32.763Z,7.71
2019-03-12T08:47:32.539Z,7.75
2019-03-12T08:48:31.011Z,7.59
2019-03-12T08:49:37.606Z,7.53
2019-03-12T08:50:31.301Z,7.49
2019-03-12T08:51:30.937Z,7.45
2019-03-12T08:52:31.770Z,7.35
2019-03-12T08:53:32.240Z,7.49
2019-03-12T08:54:30.912Z,7.45
2019-03-12T08:55:30.912Z,7.45
2019-03-12T08:56:32.806Z,7.49
2019-03-12T08:57:31.556Z,7.45
2019-03-12T08:58:30.896Z,7.53
2019-03-12T08:59:30.871Z,7.62
2019-03-12T09:00:30.834Z,7.67
2019-03-12T09:01:30.897Z,7.74
2019-03-12T09:02:32.355Z,7.75
2019-03-12T09:03:32.784Z,7.72
2019-03-12T09:04:33.219Z,7.81
2019-03-12T09:05:31.155Z,7.85
2019-03-12T09:06:41.491Z,7.78
2019-03-12T09:07:31.031Z,7.90
2019-03-12T09:08:30.765Z,7.93
2019-03-12T09:09:30.743Z,8.00
2019-03-12T09:10:30.715Z,7.99
2019-03-12T09:11:31.200Z,8.03
2019-03-12T09:12:31.840Z,8.15
2019-03-12T09:13:31.078Z,8.03
2019-03-12T09:14:30.912Z,8.02
2019-03-12T09:15:30.709Z,7.97
2019-03-12T09:16:30.695Z,7.92
2019-03-12T09:17:32.153Z,7.94
2019-03-12T09:18:31.279Z,8.02
2019-03-12T09:19:31.138Z,8.03
2019-03-12T09:20:30.783Z,8.12
2019-03-12T09:21:30.568Z,8.03
2019-03-12T09:22:30.560Z,7.97
2019-03-12T09:23:30.547Z,7.84
2019-03-12T09:24:30.652Z,7.78
2019-03-12T09:25:30.588Z,7.85
2019-03-12T09:26:30.522Z,7.67
2019-03-12T09:27:30.589Z,7.81
2019-03-12T09:28:30.642Z,7.81
2019-03-12T09:29:30.553Z,7.72
2019-03-12T09:30:30.636Z,7.87
2019-03-12T09:31:32.711Z,7.92
2019-03-12T09:32:30.738Z,7.89
2019-03-12T09:33:30.638Z,8.00
2019-03-12T09:34:30.433Z,7.92
2019-03-12T09:35:30.416Z,8.08
2019-03-12T09:36:30.632Z,8.04
2019-03-12T09:37:30.920Z,8.03
2019-03-12T09:38:30.945Z,8.08
2019-03-12T09:39:30.437Z,8.12
2019-03-12T09:40:30.875Z,7.93
2019-03-12T09:41:30.653Z,8.07
2019-03-12T09:42:30.354Z,8.03
2019-03-12T09:43:30.371Z,8.10
2019-03-12T09:44:30.327Z,8.21
2019-03-12T09:45:30.310Z,8.29
2019-03-12T09:46:30.310Z,8.40
2019-03-12T09:47:30.287Z,8.39
2019-03-12T09:48:30.346Z,8.40
2019-03-12T09:49:30.715Z,8.39
2019-03-12T09:50:30.518Z,8.35
2019-03-12T09:51:30.401Z,8.40
2019-03-12T09:52:30.236Z,8.26
2019-03-12T09:53:30.225Z,8.30
2019-03-12T09:54:30.211Z,8.32
2019-03-12T09:55:30.229Z,8.25
2019-03-12T09:56:30.192Z,8.18
2019-03-12T09:57:30.182Z,8.25
2019-03-12T09:58:30.171Z,8.18
2019-03-12T09:59:30.157Z,8.00
2019-03-12T10:00:30.146Z,8.07
2019-03-12T10:01:30.382Z,8.04
2019-03-12T10:02:30.595Z,8.00
2019-03-12T10:03:30.137Z,8.11
2019-03-12T10:04:30.310Z,8.20
2019-03-12T10:05:30.095Z,8.25
2019-03-12T10:06:30.097Z,8.30
2019-03-12T10:07:30.110Z,8.35
2019-03-12T10:08:30.198Z,8.21
2019-03-12T10:09:30.519Z,8.25
2019-03-12T10:10:30.044Z,8.07
2019-03-12T10:11:30.030Z,7.93
2019-03-12T10:12:30.026Z,8.04
2019-03-12T10:13:30.045Z,8.03
2019-03-12T10:14:30.014Z,8.08
2019-03-12T10:15:30.244Z,8.18
2019-03-12T10:16:30.350Z,8.18
2019-03-12T10:17:30.088Z,8.04
2019-03-12T10:18:29.965Z,7.99
2019-03-12T10:19:30.082Z,8.17
2019-03-12T10:20:29.968Z,8.26
2019-03-12T10:21:30.374Z,8.26
2019-03-12T10:22:29.953Z,8.39
2019-03-12T10:23:29.915Z,8.40
2019-03-12T10:24:29.888Z,8.42
2019-03-12T10:25:30.024Z,8.48
2019-03-12T10:26:30.742Z,8.58
2019-03-12T10:27:29.972Z,8.66
2019-03-12T10:28:29.906Z,8.55
2019-03-12T10:29:30.253Z,8.44
2019-03-12T10:30:29.918Z,8.36
2019-03-12T10:31:30.114Z,8.45
2019-03-12T10:32:29.941Z,8.63
2019-03-12T10:33:30.085Z,8.91
2019-03-12T10:34:30.249Z,8.97
2019-03-12T10:35:29.779Z,8.87
2019-03-12T10:36:31.045Z,8.99
2019-03-12T10:37:30.014Z,9.13
2019-03-12T10:38:29.741Z,9.18
2019-03-12T10:39:29.747Z,9.05
2019-03-12T10:40:29.725Z,8.99
2019-03-12T10:41:30.179Z,8.76
2019-03-12T10:42:29.962Z,8.86
2019-03-12T10:43:29.846Z,9.06
2019-03-12T10:44:29.674Z,9.18
2019-03-12T10:45:29.800Z,9.21
2019-03-12T10:46:30.914Z,8.91
2019-03-12T10:47:29.745Z,8.86
2019-03-12T10:48:29.635Z,8.79
2019-03-12T10:49:37.562Z,8.79
2019-03-12T10:50:30.753Z,8.86
2019-03-12T10:51:29.600Z,9.06
2019-03-12T10:52:29.793Z,9.13
2019-03-12T10:53:29.690Z,9.15
2019-03-12T10:54:29.719Z,9.13
2019-03-12T10:55:29.730Z,9.16
2019-03-12T10:56:29.691Z,9.18
2019-03-12T10:57:29.532Z,9.20
2019-03-12T10:58:29.666Z,9.20
2019-03-12T10:59:29.796Z,9.28
2019-03-12T11:00:29.589Z,9.35
2019-03-12T11:01:30.278Z,9.46
2019-03-12T11:02:29.557Z,9.40
2019-03-12T11:03:29.546Z,9.45
2019-03-12T11:04:29.567Z,9.46
2019-03-12T11:05:29.489Z,9.31
2019-03-12T11:06:29.449Z,9.30
2019-03-12T11:07:29.486Z,9.40
2019-03-12T11:08:29.540Z,9.39
2019-03-12T11:09:29.482Z,9.45
2019-03-12T11:10:29.413Z,9.49
2019-03-12T11:11:29.839Z,9.34
2019-03-12T11:12:29.381Z,9.43
2019-03-12T11:13:29.413Z,9.25
2019-03-12T11:14:29.353Z,9.20
2019-03-12T11:15:29.345Z,9.21
2019-03-12T11:16:29.340Z,9.23
2019-03-12T11:17:29.388Z,9.32
2019-03-12T11:18:29.735Z,9.38
2019-03-12T11:19:29.531Z,9.57
2019-03-12T11:20:29.293Z,9.45
2019-03-12T11:21:29.296Z,9.63
2019-03-12T11:22:29.433Z,9.52
2019-03-12T11:23:29.605Z,9.52
2019-03-12T11:24:29.251Z,9.48
2019-03-12T11:25:29.663Z,9.64
2019-03-12T11:26:29.251Z,9.58
2019-03-12T11:27:29.213Z,9.50
2019-03-12T11:28:29.221Z,9.42
2019-03-12T11:29:29.203Z,9.45
2019-03-12T11:30:29.182Z,9.49
2019-03-12T11:31:29.331Z,9.49
2019-03-12T11:32:29.162Z,9.45
2019-03-12T11:33:29.301Z,9.40
2019-03-12T11:34:29.263Z,9.40
2019-03-12T11:35:38.736Z,9.60
2019-03-12T11:36:31.663Z,9.63
2019-03-12T11:37:29.738Z,9.71
2019-03-12T11:38:29.575Z,9.71
2019-03-12T11:39:29.160Z,9.57
2019-03-12T11:40:32.533Z,9.46
2019-03-12T11:41:29.857Z,9.40
2019-03-12T11:42:29.529Z,9.46
2019-03-12T11:43:29.142Z,9.39
2019-03-12T11:44:29.097Z,9.38
2019-03-12T11:45:36.333Z,9.38
2019-03-12T11:46:40.695Z,9.45
2019-03-12T11:47:30.035Z,9.45
2019-03-12T11:48:29.291Z,9.38
2019-03-12T11:49:29.236Z,9.32
2019-03-12T11:50:29.477Z,9.31
2019-03-12T11:51:29.035Z,9.38
2019-03-12T11:52:28.947Z,9.42
2019-03-12T11:53:29.027Z,9.46
2019-03-12T11:54:29.026Z,9.43
2019-03-12T11:55:28.947Z,9.39
2019-03-12T11:56:28.928Z,9.46
2019-03-12T11:57:28.982Z,9.61
2019-03-12T11:58:28.951Z,9.52
2019-03-12T11:59:29.024Z,9.34
2019-03-12T12:00:29.147Z,9.24
2019-03-12T12:01:28.985Z,9.24
2019-03-12T12:02:29.706Z,9.24
2019-03-12T12:03:29.699Z,9.06
2019-03-12T12:04:29.237Z,9.06
2019-03-12T12:05:28.933Z,9.15
2019-03-12T12:06:30.165Z,9.20
2019-03-12T12:07:28.984Z,9.32
2019-03-12T12:08:28.790Z,9.48
2019-03-12T12:09:28.877Z,9.46
2019-03-12T12:10:28.762Z,9.30
2019-03-12T12:11:28.766Z,9.42
2019-03-12T12:12:29.856Z,9.61
2019-03-12T12:13:28.722Z,9.57
2019-03-12T12:14:28.881Z,9.60
2019-03-12T12:15:29.290Z,9.73
2019-03-12T12:16:29.161Z,9.82
2019-03-12T12:17:29.429Z,9.75
2019-03-12T12:18:28.716Z,9.70
2019-03-12T12:19:28.809Z,9.58
2019-03-12T12:20:30.353Z,9.42
2019-03-12T12:21:28.847Z,9.48
2019-03-12T12:22:29.709Z,9.31
2019-03-12T12:23:28.896Z,9.31
2019-03-12T12:24:28.748Z,9.34
2019-03-12T12:25:28.598Z,9.45
2019-03-12T12:26:28.718Z,9.49
2019-03-12T12:27:28.577Z,9.52
2019-03-12T12:28:28.573Z,9.56
2019-03-12T12:29:28.564Z,9.66
2019-03-12T12:30:28.581Z,9.56
2019-03-12T12:31:28.573Z,9.58
2019-03-12T12:32:28.524Z,9.40
2019-03-12T12:33:28.601Z,9.43
2019-03-12T12:34:28.512Z,9.40
2019-03-12T12:35:29.097Z,9.28
2019-03-12T12:36:28.628Z,9.40
2019-03-12T12:37:28.470Z,9.39
2019-03-12T12:38:28.464Z,9.53
2019-03-12T12:39:28.446Z,9.34
2019-03-12T12:40:28.435Z,9.32
2019-03-12T12:41:28.496Z,9.28
2019-03-12T12:42:28.496Z,9.43
2019-03-12T12:43:28.412Z,9.48
2019-03-12T12:44:28.533Z,9.43
2019-03-12T12:45:28.400Z,9.45
2019-03-12T12:46:28.814Z,9.31
2019-03-12T12:47:28.375Z,9.34
2019-03-12T12:48:28.726Z,9.28
2019-03-12T12:49:28.364Z,9.30
2019-03-12T12:50:28.370Z,9.32
2019-03-12T12:51:28.332Z,9.31
2019-03-12T12:52:28.318Z,9.27
2019-03-12T12:53:28.645Z,9.42
2019-03-12T12:54:28.432Z,9.53
2019-03-12T12:55:28.280Z,9.49
2019-03-12T12:56:28.265Z,9.50
2019-03-12T12:57:28.269Z,9.43
2019-03-12T12:58:28.250Z,9.52
2019-03-12T12:59:28.243Z,9.24
2019-03-12T13:00:28.796Z,9.21
2019-03-12T13:01:28.739Z,9.20
2019-03-12T13:02:28.212Z,9.13
2019-03-12T13:03:28.209Z,9.13
2019-03-12T13:04:28.190Z,9.13
2019-03-12T13:05:28.191Z,9.16
2019-03-12T13:06:28.520Z,9.20
2019-03-12T13:07:28.149Z,9.05
2019-03-12T13:08:28.143Z,9.10
2019-03-12T13:09:28.149Z,9.21
2019-03-12T13:10:28.234Z,9.16
2019-03-12T13:11:28.118Z,9.18
2019-03-12T13:12:28.179Z,9.18
2019-03-12T13:13:28.085Z,9.13
2019-03-12T13:14:40.776Z,8.93
2019-03-12T13:15:29.077Z,8.83
2019-03-12T13:16:28.093Z,8.93
2019-03-12T13:17:28.066Z,8.90
2019-03-12T13:18:28.105Z,8.97
2019-03-12T13:19:28.421Z,8.96
2019-03-12T13:20:28.062Z,8.96
2019-03-12T13:21:28.758Z,8.99
2019-03-12T13:22:28.100Z,8.91
2019-03-12T13:23:28.309Z,8.86
2019-03-12T13:24:28.129Z,8.88
2019-03-12T13:25:27.968Z,8.97
2019-03-12T13:26:28.021Z,8.96
2019-03-12T13:27:27.986Z,9.09
2019-03-12T13:28:29.689Z,9.15
2019-03-12T13:29:27.927Z,9.18
2019-03-12T13:30:27.951Z,9.24
2019-03-12T13:31:27.918Z,9.21
2019-03-12T13:32:28.176Z,9.21
2019-03-12T13:33:27.979Z,9.21
2019-03-12T13:34:28.122Z,9.21
2019-03-12T13:35:27.937Z,9.23
2019-03-12T13:36:28.687Z,9.30
2019-03-12T13:37:27.852Z,9.34
2019-03-12T13:38:28.401Z,9.25
2019-03-12T13:39:27.863Z,9.21
2019-03-12T13:40:27.821Z,9.23
2019-03-12T13:41:28.153Z,9.31
2019-03-12T13:42:27.878Z,9.28
2019-03-12T13:43:28.047Z,9.20
2019-03-12T13:44:28.815Z,9.20
2019-03-12T13:45:28.687Z,9.25
2019-03-12T13:46:27.729Z,9.24
2019-03-12T13:47:29.663Z,9.27
2019-03-12T13:48:27.825Z,9.27
2019-03-12T13:49:28.246Z,9.32
2019-03-12T13:50:27.743Z,9.42
2019-03-12T13:51:27.685Z,9.39
2019-03-12T13:52:28.461Z,9.45
2019-03-12T13:53:27.662Z,9.45
2019-03-12T13:54:27.853Z,9.45
2019-03-12T13:55:27.646Z,9.49
2019-03-12T13:56:27.743Z,9.42
2019-03-12T13:57:27.979Z,9.34
2019-03-12T13:58:28.220Z,9.39
2019-03-12T13:59:28.183Z,9.31
2019-03-12T14:00:27.869Z,9.27
2019-03-12T14:01:27.578Z,9.30
2019-03-12T14:02:27.592Z,9.27
2019-03-12T14:03:27.582Z,9.28
2019-03-12T14:04:27.844Z,9.32
2019-03-12T14:05:28.262Z,9.34
2019-03-12T14:06:28.040Z,9.34
2019-03-12T14:07:27.503Z,9.38
2019-03-12T14:08:27.515Z,9.48
2019-03-12T14:09:27.498Z,9.49
2019-03-12T14:10:27.658Z,9.45
2019-03-12T14:11:27.769Z,9.46
2019-03-12T14:12:27.727Z,9.53
2019-03-12T14:13:27.576Z,9.45
2019-03-12T14:14:27.974Z,9.40
2019-03-12T14:15:27.543Z,9.42
2019-03-12T14:16:27.411Z,9.42
2019-03-12T14:17:27.478Z,9.38
2019-03-12T14:18:28.229Z,9.38
2019-03-12T14:19:27.563Z,9.28
2019-03-12T14:20:27.497Z,9.27
2019-03-12T14:21:27.372Z,9.30
2019-03-12T14:22:27.511Z,9.27
2019-03-12T14:23:27.760Z,9.28
2019-03-12T14:24:28.045Z,9.32
2019-03-12T14:25:27.519Z,9.32
2019-03-12T14:26:27.422Z,9.31
2019-03-12T14:27:27.725Z,9.35
2019-03-12T14:28:27.683Z,9.30
2019-03-12T14:29:27.319Z,9.32
2019-03-12T14:30:27.379Z,9.40
2019-03-12T14:31:27.289Z,9.49
2019-03-12T14:32:27.273Z,9.43
2019-03-12T14:33:27.225Z,9.46
2019-03-12T14:34:27.348Z,9.48
2019-03-12T14:35:27.201Z,9.46
2019-03-12T14:36:27.246Z,9.42
2019-03-12T14:37:27.303Z,9.45
2019-03-12T14:38:27.292Z,9.45
2019-03-12T14:39:27.276Z,9.48
2019-03-12T14:40:27.150Z,9.46
2019-03-12T14:41:27.231Z,9.60
2019-03-12T14:42:27.198Z,9.60
2019-03-12T14:43:27.175Z,9.60
2019-03-12T14:44:27.140Z,9.67
2019-03-12T14:45:27.148Z,9.63
2019-03-12T14:46:27.141Z,9.58
2019-03-12T14:47:27.318Z,9.64
2019-03-12T14:48:28.561Z,9.71
2019-03-12T14:49:27.049Z,9.75
2019-03-12T14:50:27.051Z,9.73
2019-03-12T14:51:27.088Z,9.79
2019-03-12T14:52:27.029Z,9.71
2019-03-12T14:53:27.008Z,9.71
2019-03-12T14:54:27.269Z,9.68
2019-03-12T14:55:27.330Z,9.75
2019-03-12T14:56:27.020Z,9.86
2019-03-12T14:57:27.067Z,9.81
2019-03-12T14:58:27.097Z,9.81
2019-03-12T14:59:27.011Z,9.81
2019-03-12T15:00:28.528Z,9.83
2019-03-12T15:01:26.995Z,9.97
2019-03-12T15:02:27.044Z,10.01
2019-03-12T15:03:27.789Z,10.06
2019-03-12T15:04:27.745Z,9.99
2019-03-12T15:05:26.891Z,10.00